Time;durP1;ratioP1;P1;durP2;ratioP2;P2;SDS_P1;SDS_P2;PMS_P1;PMS_P2;Temp;Humidity;BMP_temperature;BMP_pressure;BME280_temperature;BME280_humidity;BME280_pressure;Samples;Min_cycle;Max_cycle;Signal;HPM_P1;HPM_P2
2023/04/06 00:01:13;;;;;;;2.58;2.38;;;2.00;65.10;;;;;;5066236;28;20243;-68
2023/04/06 00:03:41;;;;;;;11.80;3.92;;;2.10;65.50;;;;;;5066275;28;20292;-68
2023/04/06 00:06:08;;;;;;;2.42;1.63;;;2.10;65.90;;;;;;5066183;28;20730;-69
2023/04/06 00:08:36;;;;;;;8.43;3.00;;;2.10;65.50;;;;;;5065935;28;20257;-68
2023/04/06 00:11:02;;;;;;;7.53;4.22;;;2.10;65.70;;;;;;5066423;28;20255;-68
2023/04/06 00:13:30;;;;;;;10.13;4.70;;;2.10;65.60;;;;;;5066543;28;20300;-67
2023/04/06 00:15:56;;;;;;;4.60;3.85;;;2.10;66.30;;;;;;5065781;28;20230;-69
2023/04/06 00:18:23;;;;;;;6.50;4.68;;;2.10;65.70;;;;;;5052481;28;20484;-68
2023/04/06 00:20:52;;;;;;;4.60;3.45;;;2.10;66.30;;;;;;5065449;28;20376;-68
2023/04/06 00:23:18;;;;;;;4.43;3.63;;;2.10;66.00;;;;;;5066831;28;20234;-68
2023/04/06 00:25:45;;;;;;;8.18;4.25;;;2.00;66.40;;;;;;5066362;28;20292;-68
2023/04/06 00:28:12;;;;;;;3.13;2.90;;;1.90;67.50;;;;;;5065420;28;20257;-67
2023/04/06 00:30:39;;;;;;;5.75;4.63;;;1.80;68.00;;;;;;5066449;28;20223;-68
2023/04/06 00:33:06;;;;;;;4.95;3.55;;;1.80;68.60;;;;;;5065532;28;20304;-68
2023/04/06 00:35:33;;;;;;;1.48;1.38;;;1.80;67.90;;;;;;5065801;28;20798;-68
2023/04/06 00:38:01;;;;;;;4.32;2.25;;;1.70;68.40;;;;;;5066692;28;20272;-68
2023/04/06 00:40:28;;;;;;;2.22;2.03;;;1.70;68.10;;;;;;5065638;28;20304;-68
2023/04/06 00:42:55;;;;;;;2.53;2.33;;;1.70;68.20;;;;;;5070036;28;20199;-68
2023/04/06 00:45:22;;;;;;;3.38;3.00;;;1.70;67.80;;;;;;5069504;28;20202;-68
2023/04/06 00:47:49;;;;;;;2.58;2.38;;;1.70;68.00;;;;;;5068962;28;20188;-68
2023/04/06 00:50:16;;;;;;;3.80;2.33;;;1.70;68.40;;;;;;5069439;28;20238;-67
2023/04/06 00:52:43;;;;;;;3.90;3.53;;;1.60;68.60;;;;;;5057886;28;20300;-68
2023/04/06 00:55:11;;;;;;;2.45;2.22;;;1.60;68.70;;;;;;5069738;28;20199;-68
2023/04/06 00:57:38;;;;;;;5.68;2.85;;;1.70;68.50;;;;;;5064428;28;20249;-68
2023/04/06 01:00:06;;;;;;;3.17;2.40;;;1.60;69.10;;;;;;5069220;28;20253;-69
2023/04/06 01:02:33;;;;;;;7.10;4.97;;;1.60;69.10;;;;;;5069567;28;20195;-68
2023/04/06 01:05:00;;;;;;;2.70;1.88;;;1.50;69.10;;;;;;5069494;28;20207;-68
2023/04/06 01:07:27;;;;;;;1.90;1.80;;;1.40;69.80;;;;;;5069290;28;20306;-68
2023/04/06 01:09:54;;;;;;;4.78;2.95;;;1.50;69.50;;;;;;5068951;28;20196;-68
2023/04/06 01:12:23;;;;;;;2.83;1.92;;;1.50;69.40;;;;;;5069681;28;20231;-67
2023/04/06 01:14:52;;;;;;;3.10;2.22;;;1.50;69.30;;;;;;5069595;28;20196;-67
2023/04/06 01:17:20;;;;;;;2.03;1.92;;;1.40;70.20;;;;;;5068459;28;20223;-68
2023/04/06 01:19:49;;;;;;;2.05;1.95;;;1.40;69.50;;;;;;5068643;28;20194;-68
2023/04/06 01:22:19;;;;;;;2.97;2.00;;;1.50;69.50;;;;;;5069143;28;20222;-68
2023/04/06 01:24:47;;;;;;;2.22;2.05;;;1.50;69.60;;;;;;5069454;28;20282;-68
2023/04/06 01:27:15;;;;;;;3.28;3.00;;;1.50;69.10;;;;;;5069055;28;20225;-67
2023/04/06 01:29:42;;;;;;;2.85;2.65;;;1.50;69.30;;;;;;5068376;28;20853;-68
2023/04/06 01:32:09;;;;;;;3.55;2.10;;;1.50;69.40;;;;;;5068910;28;20227;-68
2023/04/06 01:34:37;;;;;;;2.85;2.25;;;1.50;69.70;;;;;;5068964;28;20284;-68
2023/04/06 01:37:05;;;;;;;3.40;3.15;;;1.40;70.40;;;;;;5068837;28;20308;-69
2023/04/06 01:39:34;;;;;;;2.10;1.92;;;1.30;70.60;;;;;;5068167;28;20199;-67
2023/04/06 01:42:02;;;;;;;2.22;2.13;;;1.30;71.30;;;;;;5068384;28;20221;-67
2023/04/06 01:44:30;;;;;;;2.30;2.05;;;1.30;71.20;;;;;;5069251;28;20568;-67
2023/04/06 01:46:58;;;;;;;5.93;3.08;;;1.30;71.00;;;;;;5068823;28;20227;-67
2023/04/06 01:49:25;;;;;;;3.42;1.55;;;1.20;72.30;;;;;;5068316;28;20199;-67
2023/04/06 01:51:54;;;;;;;4.38;3.45;;;1.20;71.80;;;;;;5068712;28;20216;-68
2023/04/06 01:54:22;;;;;;;2.85;2.25;;;1.20;71.60;;;;;;5067420;28;20317;-68
2023/04/06 01:56:52;;;;;;;4.00;3.70;;;1.20;71.70;;;;;;5068661;28;20280;-67
2023/04/06 01:59:19;;;;;;;3.05;2.47;;;1.20;71.50;;;;;;5067829;28;20638;-68
2023/04/06 02:01:47;;;;;;;4.32;3.97;;;1.10;71.50;;;;;;5065364;28;20215;-67
2023/04/06 02:04:15;;;;;;;1.50;1.40;;;1.20;71.20;;;;;;5068536;28;20230;-68
2023/04/06 02:06:42;;;;;;;2.08;1.80;;;1.20;71.20;;;;;;5068434;28;20251;-68
2023/04/06 02:09:10;;;;;;;4.55;2.33;;;1.20;70.90;;;;;;5067773;28;20858;-68
2023/04/06 02:11:38;;;;;;;4.13;3.40;;;1.20;70.70;;;;;;5067959;28;20310;-68
2023/04/06 02:14:06;;;;;;;1.63;1.52;;;1.20;70.70;;;;;;5068466;28;20234;-68
2023/04/06 02:16:33;;;;;;;2.40;2.20;;;1.20;70.80;;;;;;5067981;28;20607;-68
2023/04/06 02:19:00;;;;;;;2.47;2.38;;;1.10;70.70;;;;;;5067621;28;20199;-67
2023/04/06 02:21:27;;;;;;;3.35;2.88;;;1.10;71.00;;;;;;5068175;28;20314;-68
2023/04/06 02:23:54;;;;;;;2.50;2.30;;;1.10;71.00;;;;;;5053429;28;20703;-67
2023/04/06 02:26:21;;;;;;;8.88;3.08;;;1.10;71.00;;;;;;5068148;28;20223;-67
2023/04/06 02:28:48;;;;;;;2.47;2.17;;;1.10;71.00;;;;;;5067429;28;20191;-67
2023/04/06 02:31:17;;;;;;;6.97;3.03;;;1.10;71.10;;;;;;5068499;28;20219;-67
2023/04/06 02:33:44;;;;;;;5.55;2.60;;;1.10;71.00;;;;;;5067958;28;20207;-67
2023/04/06 02:36:12;;;;;;;1.88;1.70;;;1.10;70.90;;;;;;5067913;28;20227;-67
2023/04/06 02:38:39;;;;;;;1.52;1.38;;;1.10;71.40;;;;;;5067176;28;20273;-68
2023/04/06 02:41:06;;;;;;;7.70;2.90;;;1.00;71.00;;;;;;5067932;28;20219;-67
2023/04/06 02:43:34;;;;;;;1.92;1.77;;;1.00;72.20;;;;;;5067207;28;20674;-67
2023/04/06 02:46:02;;;;;;;2.13;1.83;;;0.90;72.00;;;;;;5067362;28;20746;-68
2023/04/06 02:48:31;;;;;;;1.73;1.50;;;0.90;72.70;;;;;;5067550;28;20695;-68
2023/04/06 02:50:58;;;;;;;2.55;1.80;;;0.90;72.50;;;;;;5066894;28;20596;-68
2023/04/06 02:53:25;;;;;;;1.75;1.65;;;0.90;72.70;;;;;;5067637;28;20902;-67
2023/04/06 02:55:53;;;;;;;5.13;3.67;;;0.90;72.80;;;;;;5066614;28;20242;-67
2023/04/06 02:58:20;;;;;;;2.75;2.55;;;0.80;72.50;;;;;;5067222;28;20195;-68
2023/04/06 03:00:48;;;;;;;1.52;1.42;;;0.70;72.40;;;;;;5067048;28;20334;-67
2023/04/06 03:03:15;;;;;;;3.60;1.95;;;0.70;72.30;;;;;;5066673;28;20221;-68
2023/04/06 03:05:44;;;;;;;5.60;4.32;;;0.70;72.30;;;;;;5066970;28;20272;-67
2023/04/06 03:08:11;;;;;;;5.78;4.15;;;0.70;71.60;;;;;;5066775;28;20273;-68
2023/04/06 03:10:39;;;;;;;2.35;1.33;;;0.70;71.70;;;;;;5067015;28;20616;-68
2023/04/06 03:13:07;;;;;;;5.18;3.20;;;0.70;72.10;;;;;;5067111;28;20924;-69
2023/04/06 03:15:35;;;;;;;2.25;2.05;;;0.70;72.10;;;;;;5067086;28;20701;-68
2023/04/06 03:18:02;;;;;;;4.07;2.40;;;0.70;72.60;;;;;;5066154;28;20195;-68
2023/04/06 03:20:31;;;;;;;1.27;1.27;;;0.70;73.40;;;;;;5066953;28;20227;-67
2023/04/06 03:23:01;;;;;;;3.10;2.92;;;0.70;73.30;;;;;;5066961;28;20219;-68
2023/04/06 03:25:29;;;;;;;3.10;2.55;;;0.60;73.90;;;;;;5066943;28;20234;-69
2023/04/06 03:27:57;;;;;;;7.40;4.85;;;0.60;74.20;;;;;;5067085;28;20248;-68
2023/04/06 03:30:26;;;;;;;6.22;3.83;;;0.60;74.20;;;;;;5065032;28;20231;-66
2023/04/06 03:32:53;;;;;;;3.28;2.97;;;0.60;74.00;;;;;;5067140;28;20684;-67
2023/04/06 03:35:20;;;;;;;10.52;2.28;;;0.50;74.40;;;;;;5066681;28;20195;-67
2023/04/06 03:37:48;;;;;;;3.55;3.25;;;0.60;74.30;;;;;;5066898;28;20210;-69
2023/04/06 03:40:17;;;;;;;5.70;3.05;;;0.60;73.60;;;;;;5066164;28;20203;-68
2023/04/06 03:42:44;;;;;;;5.32;3.42;;;0.60;73.20;;;;;;5066096;28;20245;-71
2023/04/06 03:45:13;;;;;;;2.90;2.60;;;0.70;73.10;;;;;;5066407;28;20237;-68
2023/04/06 03:47:41;;;;;;;4.95;2.80;;;0.60;73.00;;;;;;5067290;28;20206;-67
2023/04/06 03:50:08;;;;;;;3.83;2.95;;;0.60;73.70;;;;;;5066986;28;20281;-68
2023/04/06 03:52:36;;;;;;;3.28;3.08;;;0.40;74.20;;;;;;5066526;28;20199;-68
2023/04/06 03:55:03;;;;;;;1.70;1.10;;;0.40;74.60;;;;;;5067106;28;20334;-68
2023/04/06 03:57:31;;;;;;;1.95;1.83;;;0.40;75.10;;;;;;5066873;28;20196;-68
2023/04/06 03:59:58;;;;;;;2.42;2.33;;;0.40;75.30;;;;;;5066939;28;20272;-68
2023/04/06 04:02:25;;;;;;;2.58;2.33;;;0.40;74.00;;;;;;5066411;28;20728;-68
2023/04/06 04:04:52;;;;;;;4.97;1.58;;;0.40;73.30;;;;;;5067318;28;20218;-68
2023/04/06 04:07:19;;;;;;;5.50;3.08;;;0.50;73.10;;;;;;5067318;28;20269;-68
2023/04/06 04:09:46;;;;;;;1.95;1.85;;;0.50;73.20;;;;;;5066714;28;20657;-68
2023/04/06 04:12:14;;;;;;;1.75;1.55;;;0.50;73.50;;;;;;5066826;28;20239;-68
2023/04/06 04:14:43;;;;;;;2.28;1.65;;;0.50;73.60;;;;;;5066656;28;20527;-68
2023/04/06 04:17:10;;;;;;;3.08;2.72;;;0.40;73.90;;;;;;5066871;28;20678;-68
2023/04/06 04:19:37;;;;;;;1.52;1.42;;;0.40;73.80;;;;;;5066446;28;20191;-68
2023/04/06 04:22:06;;;;;;;1.70;1.63;;;0.50;73.70;;;;;;5066958;28;20252;-68
2023/04/06 04:24:33;;;;;;;2.88;2.63;;;0.40;74.40;;;;;;5066344;28;20214;-67
2023/04/06 04:27:01;;;;;;;4.43;2.47;;;0.40;74.80;;;;;;5066763;28;20223;-68
2023/04/06 04:29:28;;;;;;;1.23;1.23;;;0.40;74.50;;;;;;5066665;28;20920;-68
2023/04/06 04:31:56;;;;;;;2.10;1.90;;;0.50;74.20;;;;;;5066322;28;20219;-68
2023/04/06 04:34:25;;;;;;;2.67;2.10;;;0.40;74.30;;;;;;5067038;28;20226;-68
2023/04/06 04:36:52;;;;;;;2.53;2.33;;;0.50;73.70;;;;;;5066570;28;20222;-69
2023/04/06 04:39:18;;;;;;;3.47;2.83;;;0.40;74.00;;;;;;5066341;28;21144;-67
2023/04/06 04:41:45;;;;;;;2.35;2.15;;;0.40;74.40;;;;;;5066397;28;20268;-68
2023/04/06 04:44:12;;;;;;;5.07;3.42;;;0.40;74.00;;;;;;5066833;28;20257;-68
2023/04/06 04:46:41;;;;;;;2.17;2.08;;;0.50;73.50;;;;;;5066616;28;20771;-67
2023/04/06 04:49:09;;;;;;;2.60;2.40;;;0.50;73.40;;;;;;5066655;28;20200;-67
2023/04/06 04:51:36;;;;;;;1.85;1.75;;;0.50;73.10;;;;;;5065904;28;20704;-67
2023/04/06 04:54:03;;;;;;;1.73;1.60;;;0.40;73.50;;;;;;5066377;28;20592;-67
2023/04/06 04:56:30;;;;;;;1.77;1.67;;;0.40;73.50;;;;;;5066962;28;20227;-67
2023/04/06 04:58:57;;;;;;;4.50;1.55;;;0.40;73.90;;;;;;5066036;28;20634;-67
2023/04/06 05:01:24;;;;;;;2.10;1.90;;;0.40;74.70;;;;;;5066358;28;20304;-68
2023/04/06 05:03:51;;;;;;;9.07;2.13;;;0.40;74.80;;;;;;5066635;28;20199;-68
2023/04/06 05:06:20;;;;;;;3.88;3.53;;;0.30;75.00;;;;;;5065684;28;20277;-67
2023/04/06 05:08:46;;;;;;;3.60;2.30;;;0.30;75.20;;;;;;5066572;28;20922;-68
2023/04/06 05:11:13;;;;;;;1.63;1.52;;;0.30;74.90;;;;;;5065913;28;20288;-67
2023/04/06 05:13:40;;;;;;;5.88;2.70;;;0.30;75.20;;;;;;5066428;28;20307;-67
2023/04/06 05:16:07;;;;;;;2.97;2.22;;;0.40;74.40;;;;;;5065759;28;20284;-68
2023/04/06 05:18:34;;;;;;;4.03;2.35;;;0.40;74.80;;;;;;5066035;28;20227;-68
2023/04/06 05:21:02;;;;;;;3.40;3.05;;;0.50;74.90;;;;;;5066107;28;20874;-70
2023/04/06 05:23:33;;;;;;;1.83;1.10;;;0.50;74.40;;;;;;5066223;28;20298;-69
2023/04/06 05:26:02;;;;;;;2.85;1.92;;;0.50;74.90;;;;;;5065505;28;20223;-69
2023/04/06 05:28:30;;;;;;;1.75;1.65;;;0.50;75.40;;;;;;5067284;28;20273;-69
2023/04/06 05:30:57;;;;;;;9.02;3.20;;;0.60;75.00;;;;;;5069241;28;20310;-69
2023/04/06 05:33:24;;;;;;;4.15;2.30;;;0.70;75.00;;;;;;5067925;28;20237;-69
2023/04/06 05:35:51;;;;;;;4.28;3.60;;;0.70;74.70;;;;;;5063051;28;20701;-68
2023/04/06 05:38:18;;;;;;;7.13;5.28;;;0.80;74.60;;;;;;5060641;28;21074;-68
2023/04/06 05:40:47;;;;;;;4.07;3.67;;;0.80;73.90;;;;;;5070786;28;20219;-68
2023/04/06 05:43:14;;;;;;;2.67;2.47;;;0.90;74.20;;;;;;5077499;28;20203;-67
2023/04/06 05:45:41;;;;;;;4.43;3.00;;;0.90;74.50;;;;;;5069861;28;20226;-68
2023/04/06 05:48:07;;;;;;;4.10;2.92;;;1.00;74.80;;;;;;5069717;28;20195;-68
2023/04/06 05:50:34;;;;;;;4.85;2.53;;;1.10;74.80;;;;;;5069042;28;20258;-67
2023/04/06 05:53:01;;;;;;;9.50;3.80;;;1.20;74.40;;;;;;5066414;28;20909;-69
2023/04/06 05:55:28;;;;;;;11.23;2.58;;;1.20;73.80;;;;;;5069941;28;20310;-68
2023/04/06 05:57:56;;;;;;;2.47;2.28;;;1.30;73.50;;;;;;5068448;28;20197;-68
2023/04/06 06:00:23;;;;;;;6.97;2.20;;;1.40;73.60;;;;;;5064716;28;20216;-68
2023/04/06 06:02:50;;;;;;;3.30;3.05;;;1.50;73.90;;;;;;5064810;28;20920;-68
2023/04/06 06:05:17;;;;;;;3.92;2.72;;;1.70;73.40;;;;;;5068519;28;20196;-68
2023/04/06 06:07:44;;;;;;;3.42;3.22;;;1.80;72.90;;;;;;5069224;28;20195;-69
2023/04/06 06:10:12;;;;;;;2.72;2.47;;;1.80;72.30;;;;;;5068294;28;20541;-68
2023/04/06 06:12:39;;;;;;;3.08;2.88;;;1.90;71.50;;;;;;5065955;28;20752;-68
2023/04/06 06:15:08;;;;;;;4.00;3.03;;;2.00;71.70;;;;;;5067887;28;20223;-70
2023/04/06 06:17:35;;;;;;;2.95;2.50;;;2.00;71.70;;;;;;5066065;28;20206;-68
2023/04/06 06:20:02;;;;;;;5.22;3.38;;;2.20;71.00;;;;;;5070570;28;20665;-68
2023/04/06 06:22:29;;;;;;;3.15;2.90;;;2.30;70.60;;;;;;5068033;28;20214;-69
2023/04/06 06:24:56;;;;;;;3.92;3.53;;;2.40;70.00;;;;;;5068494;28;20664;-68
2023/04/06 06:27:23;;;;;;;2.85;2.63;;;2.40;69.90;;;;;;5067354;28;20223;-68
2023/04/06 06:29:49;;;;;;;4.75;3.28;;;2.50;69.60;;;;;;5067940;28;20195;-68
2023/04/06 06:32:19;;;;;;;3.33;3.05;;;2.60;69.30;;;;;;5066440;28;20336;-68
2023/04/06 06:34:46;;;;;;;6.28;2.47;;;2.80;69.50;;;;;;5070700;28;20211;-68
2023/04/06 06:37:13;;;;;;;3.25;3.05;;;2.80;69.20;;;;;;5065079;28;20284;-68
2023/04/06 06:39:40;;;;;;;4.88;2.78;;;2.80;68.60;;;;;;5065719;28;20222;-68
2023/04/06 06:42:06;;;;;;;3.55;3.25;;;3.00;68.20;;;;;;5065864;28;20226;-68
2023/04/06 06:44:33;;;;;;;6.65;4.20;;;3.20;68.00;;;;;;5068645;28;20248;-68
2023/04/06 06:47:00;;;;;;;9.25;3.45;;;3.30;67.50;;;;;;5068841;28;20258;-68
2023/04/06 06:49:29;;;;;;;5.97;4.70;;;3.30;66.50;;;;;;5068686;28;20261;-68
2023/04/06 06:51:55;;;;;;;6.93;3.92;;;3.40;66.40;;;;;;5065179;28;20219;-68
2023/04/06 06:54:22;;;;;;;4.55;4.15;;;3.50;67.20;;;;;;5073112;28;20622;-68
2023/04/06 06:56:49;;;;;;;6.45;3.17;;;3.70;67.10;;;;;;5069045;28;20214;-69
2023/04/06 06:59:17;;;;;;;3.50;3.13;;;3.80;66.90;;;;;;5065207;28;20293;-71
2023/04/06 07:01:44;;;;;;;4.70;4.35;;;3.90;66.50;;;;;;5064973;28;20913;-68
2023/04/06 07:04:11;;;;;;;4.25;3.95;;;4.10;66.30;;;;;;5067576;28;20269;-69
2023/04/06 07:06:39;;;;;;;4.25;3.70;;;4.20;66.80;;;;;;5067676;28;20276;-68
2023/04/06 07:09:06;;;;;;;8.88;5.35;;;4.30;65.60;;;;;;5086519;28;20226;-71
2023/04/06 07:11:33;;;;;;;4.90;2.78;;;4.40;65.80;;;;;;5076743;28;20223;-69
2023/04/06 07:13:59;;;;;;;5.60;4.72;;;4.60;66.00;;;;;;5068360;28;20195;-68
2023/04/06 07:16:26;;;;;;;7.95;4.60;;;4.60;64.80;;;;;;5068362;28;20223;-69
2023/04/06 07:18:53;;;;;;;5.72;5.15;;;4.70;64.20;;;;;;5067954;28;20738;-68
2023/04/06 07:21:20;;;;;;;4.85;4.38;;;4.80;64.20;;;;;;5067108;28;20304;-68
2023/04/06 07:23:50;;;;;;;7.45;4.35;;;4.90;63.50;;;;;;5067365;28;20249;-69
2023/04/06 07:26:17;;;;;;;6.40;3.60;;;5.10;63.60;;;;;;5068165;28;20238;-68
2023/04/06 07:28:44;;;;;;;4.07;3.50;;;5.20;62.80;;;;;;5065840;28;20227;-68
2023/04/06 07:31:11;;;;;;;5.15;4.25;;;5.40;63.20;;;;;;5065984;28;20223;-68
2023/04/06 07:33:38;;;;;;;5.45;3.75;;;5.50;62.90;;;;;;5064752;28;20191;-69
2023/04/06 07:36:05;;;;;;;5.53;4.75;;;5.70;62.80;;;;;;5065561;28;20250;-69
2023/04/06 07:38:32;;;;;;;5.25;4.00;;;5.70;60.90;;;;;;5053393;28;20231;-68
2023/04/06 07:41:02;;;;;;;5.30;4.90;;;5.80;61.80;;;;;;5067215;28;20293;-69
2023/04/06 07:43:30;;;;;;;5.68;3.92;;;6.00;60.60;;;;;;5067416;28;20199;-68
2023/04/06 07:45:57;;;;;;;4.07;3.65;;;6.10;59.30;;;;;;5067227;28;20228;-69
2023/04/06 07:48:24;;;;;;;5.00;3.55;;;6.20;58.90;;;;;;5066275;28;20219;-69
2023/04/06 07:50:51;;;;;;;7.40;3.50;;;6.30;58.80;;;;;;5065851;28;20254;-69
2023/04/06 07:53:18;;;;;;;8.00;5.25;;;6.50;58.70;;;;;;5067103;28;20227;-69
2023/04/06 07:55:45;;;;;;;6.35;3.65;;;6.40;58.40;;;;;;5067448;28;20278;-69
2023/04/06 07:58:13;;;;;;;8.98;3.75;;;6.50;58.20;;;;;;5066441;28;20245;-69
2023/04/06 08:00:40;;;;;;;7.70;4.18;;;6.70;58.70;;;;;;5067251;28;20587;-68
2023/04/06 08:03:07;;;;;;;9.43;4.57;;;6.90;57.70;;;;;;5065913;28;20210;-69
2023/04/06 08:05:34;;;;;;;6.63;4.35;;;6.90;57.10;;;;;;5068706;28;20227;-68
2023/04/06 08:08:00;;;;;;;6.65;4.07;;;7.00;56.80;;;;;;5087367;28;20229;-69
2023/04/06 08:10:27;;;;;;;4.35;3.35;;;7.10;57.50;;;;;;5077636;28;20273;-69
2023/04/06 08:12:54;;;;;;;6.68;3.75;;;7.30;56.70;;;;;;5067166;28;20226;-69
2023/04/06 08:15:22;;;;;;;4.15;3.85;;;7.30;56.20;;;;;;5067209;28;20207;-69
2023/04/06 08:17:49;;;;;;;6.63;5.13;;;7.50;57.40;;;;;;5066608;28;20244;-68
2023/04/06 08:20:16;;;;;;;4.68;4.18;;;7.60;57.60;;;;;;5066101;28;20199;-69
2023/04/06 08:22:43;;;;;;;5.25;4.75;;;7.60;56.90;;;;;;5077444;28;20187;-68
2023/04/06 08:25:10;;;;;;;4.20;3.53;;;7.80;56.20;;;;;;5087423;28;20206;-68
2023/04/06 08:27:37;;;;;;;7.97;3.80;;;7.90;55.20;;;;;;5087159;28;20237;-69
2023/04/06 08:30:04;;;;;;;5.30;4.28;;;8.10;54.40;;;;;;5085737;28;20202;-69
2023/04/06 08:32:32;;;;;;;5.53;3.72;;;8.20;55.40;;;;;;5086921;28;20206;-68
2023/04/06 08:34:59;;;;;;;5.22;4.72;;;8.20;55.00;;;;;;5086963;28;20238;-69
2023/04/06 08:37:27;;;;;;;5.22;3.88;;;8.10;55.00;;;;;;5087336;28;20234;-69
2023/04/06 08:39:53;;;;;;;4.50;3.70;;;8.10;54.30;;;;;;5086235;28;20203;-69
2023/04/06 08:42:22;;;;;;;5.15;3.60;;;8.20;54.60;;;;;;5067316;28;20711;-69
2023/04/06 08:44:50;;;;;;;5.60;3.17;;;8.40;55.10;;;;;;5066055;28;20288;-69
2023/04/06 08:47:18;;;;;;;3.83;3.53;;;8.60;54.60;;;;;;5066584;28;20223;-69
2023/04/06 08:49:47;;;;;;;4.50;4.10;;;8.80;54.50;;;;;;5065837;28;20653;-68
2023/04/06 08:52:16;;;;;;;3.23;2.67;;;8.90;53.90;;;;;;5065691;28;20686;-70
2023/04/06 08:54:43;;;;;;;4.80;3.47;;;8.90;52.00;;;;;;5065194;28;20700;-69
2023/04/06 08:57:10;;;;;;;3.47;2.23;;;8.90;52.20;;;;;;5066387;28;20657;-69
2023/04/06 08:59:38;;;;;;;3.47;3.17;;;9.20;52.30;;;;;;5064898;28;20625;-69
2023/04/06 09:02:06;;;;;;;6.60;4.10;;;9.20;52.10;;;;;;5066403;28;20905;-69
2023/04/06 09:04:34;;;;;;;4.17;3.40;;;9.40;52.20;;;;;;5068679;28;20639;-69
2023/04/06 09:07:02;;;;;;;6.30;5.03;;;9.40;52.70;;;;;;5071477;28;20657;-69
2023/04/06 09:09:29;;;;;;;5.97;3.67;;;9.60;53.00;;;;;;5089844;28;20684;-69
2023/04/06 09:12:01;;;;;;;3.70;2.97;;;9.60;52.30;;;;;;5080981;28;20654;-69
2023/04/06 09:14:36;;;;;;;4.23;3.90;;;9.70;51.20;;;;;;5070547;28;20721;-69
2023/04/06 09:17:03;;;;;;;4.17;3.10;;;9.80;50.70;;;;;;5070077;28;20698;-69
2023/04/06 09:19:30;;;;;;;6.63;3.10;;;9.70;50.10;;;;;;5069336;28;21307;-67
2023/04/06 09:22:04;;;;;;;4.60;4.13;;;9.90;48.60;;;;;;5069914;28;20677;-69
2023/04/06 09:24:41;;;;;;;10.83;3.17;;;10.00;47.20;;;;;;5082219;28;20659;-69
2023/04/06 09:27:08;;;;;;;5.83;2.90;;;10.10;47.10;;;;;;5090304;28;20651;-69
2023/04/06 09:29:36;;;;;;;3.10;2.80;;;10.10;47.00;;;;;;5089285;28;20714;-69
2023/04/06 09:32:05;;;;;;;2.23;2.07;;;10.10;45.80;;;;;;5090034;28;21358;-68
2023/04/06 09:34:32;;;;;;;3.30;2.43;;;10.00;47.40;;;;;;5090623;28;20653;-69
2023/04/06 09:36:59;;;;;;;4.40;2.70;;;10.10;46.80;;;;;;5072467;28;20710;-69
2023/04/06 09:39:27;;;;;;;7.77;4.50;;;10.30;47.30;;;;;;5068495;28;21322;-69
2023/04/06 09:41:55;;;;;;;3.60;2.90;;;10.40;46.80;;;;;;5069303;28;20692;-69
2023/04/06 09:44:23;;;;;;;4.50;3.20;;;10.50;45.70;;;;;;5069325;28;20617;-69
2023/04/06 09:46:54;;;;;;;5.20;3.07;;;10.50;45.50;;;;;;5069646;28;20760;-69
2023/04/06 09:49:21;;;;;;;4.13;3.30;;;10.40;45.10;;;;;;5068215;28;21231;-70
2023/04/06 09:51:55;;;;;;;6.27;4.53;;;10.50;46.30;;;;;;5068781;28;20652;-69
2023/04/06 09:54:23;;;;;;;6.70;2.90;;;10.60;46.90;;;;;;5069517;28;20683;-69
2023/04/06 09:56:58;;;;;;;4.97;3.50;;;10.80;46.30;;;;;;5065683;28;20709;-70
2023/04/06 09:59:32;;;;;;;7.80;5.00;;;10.70;45.70;;;;;;5066402;28;20659;-69
2023/04/06 10:02:00;;;;;;;4.23;2.63;;;10.80;46.50;;;;;;5065474;28;20663;-70
2023/04/06 10:04:37;;;;;;;4.97;3.80;;;10.80;44.40;;;;;;5068214;28;20637;-70
2023/04/06 10:07:06;;;;;;;3.30;2.90;;;10.80;45.30;;;;;;5065799;28;20648;-69
2023/04/06 10:09:36;;;;;;;2.83;2.30;;;10.90;45.50;;;;;;5068503;28;20621;-69
2023/04/06 10:12:06;;;;;;;5.30;3.70;;;11.00;46.40;;;;;;5068281;28;20649;-69
2023/04/06 10:14:34;;;;;;;6.23;3.47;;;11.00;45.70;;;;;;5067122;28;20672;-69
2023/04/06 10:17:03;;;;;;;3.37;3.07;;;10.90;43.60;;;;;;5069020;28;20673;-69
2023/04/06 10:19:38;;;;;;;6.70;3.80;;;11.00;45.40;;;;;;5067890;28;21483;-68
2023/04/06 10:22:09;;;;;;;2.53;2.33;;;11.10;45.00;;;;;;5068758;28;20672;-69
2023/04/06 10:24:36;;;;;;;2.60;2.23;;;11.20;45.30;;;;;;5069219;28;20634;-69
2023/04/06 10:27:08;;;;;;;4.17;2.17;;;11.30;44.50;;;;;;5088286;28;20672;-69
2023/04/06 10:29:44;;;;;;;4.43;2.90;;;11.50;44.60;;;;;;5088095;28;20649;-69
2023/04/06 10:32:11;;;;;;;5.60;3.37;;;11.70;44.80;;;;;;5072579;28;20741;-69
2023/04/06 10:34:39;;;;;;;7.40;4.00;;;11.60;44.40;;;;;;5067917;28;20618;-69
2023/04/06 10:37:13;;;;;;;3.63;3.33;;;11.70;44.40;;;;;;5067453;28;21307;-69
2023/04/06 10:39:47;;;;;;;6.20;3.60;;;11.70;44.80;;;;;;5065668;28;20621;-69
2023/04/06 10:42:17;;;;;;;5.70;2.90;;;11.70;44.30;;;;;;5067853;28;20649;-69
2023/04/06 10:44:46;;;;;;;3.70;3.10;;;11.80;43.80;;;;;;5067620;28;20669;-71
2023/04/06 10:47:19;;;;;;;6.20;3.97;;;11.90;44.80;;;;;;5066053;28;20663;-69
2023/04/06 10:49:46;;;;;;;3.97;2.73;;;12.10;44.50;;;;;;5066475;28;20629;-69
2023/04/06 10:52:13;;;;;;;4.43;3.00;;;12.10;43.20;;;;;;5067347;28;20649;-69
2023/04/06 10:54:43;;;;;;;4.00;3.10;;;11.80;43.60;;;;;;5067872;28;20625;-70
2023/04/06 10:57:28;;;;;;;8.13;4.00;;;11.90;44.10;;;;;;5064631;28;21688;-71
2023/04/06 10:59:56;;;;;;;3.30;3.00;;;11.90;44.40;;;;;;5067183;28;21197;-70
2023/04/06 11:02:23;;;;;;;3.43;2.97;;;12.00;44.60;;;;;;5065662;28;20648;-69
2023/04/06 11:04:57;;;;;;;6.50;4.30;;;12.20;44.10;;;;;;5065797;28;20643;-69
2023/04/06 11:07:25;;;;;;;3.80;2.90;;;12.30;43.10;;;;;;5065947;28;20748;-69
2023/04/06 11:09:52;;;;;;;2.72;2.53;;;12.30;43.20;;;;;;5065688;28;20751;-69
2023/04/06 11:12:23;;;;;;;3.23;3.00;;;12.40;43.20;;;;;;5067027;28;20253;-69
2023/04/06 11:15:03;;;;;;;4.72;2.97;;;12.40;43.30;;;;;;5067361;28;20787;-70
2023/04/06 11:17:32;;;;;;;3.20;2.90;;;12.50;43.20;;;;;;5067413;28;20794;-69
2023/04/06 11:19:59;;;;;;;4.07;3.00;;;12.20;41.50;;;;;;5067784;28;20662;-69
2023/04/06 11:22:26;;;;;;;4.77;3.33;;;12.30;43.30;;;;;;5067210;28;20646;-70
2023/04/06 11:24:53;;;;;;;3.97;3.07;;;12.60;44.30;;;;;;5067787;28;20619;-70
2023/04/06 11:27:21;;;;;;;4.83;3.00;;;12.90;42.50;;;;;;5066438;28;20710;-70
2023/04/06 11:29:49;;;;;;;4.30;3.33;;;13.00;42.10;;;;;;5067426;28;20708;-67
2023/04/06 11:32:24;;;;;;;4.30;2.90;;;13.30;41.00;;;;;;5067190;28;20741;-69
2023/04/06 11:34:51;;;;;;;4.60;2.93;;;13.20;41.00;;;;;;5054440;28;20625;-67
2023/04/06 11:37:18;;;;;;;3.23;2.67;;;13.40;41.40;;;;;;5066948;28;21058;-67
2023/04/06 11:39:51;;;;;;;5.20;3.27;;;13.60;41.30;;;;;;5065879;28;20616;-70
2023/04/06 11:42:25;;;;;;;3.80;2.23;;;13.90;41.20;;;;;;5066169;28;20656;-69
2023/04/06 11:44:54;;;;;;;3.30;2.57;;;14.30;40.50;;;;;;5067136;28;20693;-68
2023/04/06 11:47:30;;;;;;;3.67;2.33;;;14.10;39.50;;;;;;5066478;28;20703;-68
2023/04/06 11:49:59;;;;;;;5.37;2.90;;;14.20;40.20;;;;;;5067118;28;20625;-69
2023/04/06 11:52:29;;;;;;;5.27;2.77;;;14.50;40.30;;;;;;5065392;28;21231;-68
2023/04/06 11:54:57;;;;;;;2.50;2.30;;;14.60;39.70;;;;;;5064599;28;20796;-68
2023/04/06 11:57:25;;;;;;;3.43;2.83;;;14.70;39.30;;;;;;5061467;28;20675;-68
2023/04/06 11:59:52;;;;;;;3.93;3.40;;;14.70;38.80;;;;;;5059495;28;21193;-69
2023/04/06 12:02:19;;;;;;;2.90;2.47;;;14.60;39.20;;;;;;5065051;28;20661;-68
2023/04/06 12:04:47;;;;;;;6.47;2.90;;;14.30;40.20;;;;;;5069154;28;21003;-68
2023/04/06 12:07:14;;;;;;;3.80;3.00;;;14.10;39.30;;;;;;5064386;28;20722;-68
2023/04/06 12:09:41;;;;;;;5.87;3.20;;;13.90;39.10;;;;;;5064924;28;20627;-68
2023/04/06 12:12:08;;;;;;;5.80;3.00;;;13.60;39.30;;;;;;5065295;28;21256;-69
2023/04/06 12:14:35;;;;;;;3.23;2.37;;;13.50;40.40;;;;;;5065054;28;20624;-68
2023/04/06 12:17:02;;;;;;;5.33;3.20;;;13.40;39.80;;;;;;5064590;28;21051;-68
2023/04/06 12:19:30;;;;;;;4.10;3.43;;;13.40;40.40;;;;;;5063762;28;20652;-68
2023/04/06 12:21:59;;;;;;;3.00;2.70;;;13.60;41.00;;;;;;5064147;28;21272;-68
2023/04/06 12:24:27;;;;;;;3.67;3.10;;;13.50;40.40;;;;;;5065276;28;20638;-68
2023/04/06 12:26:54;;;;;;;7.10;3.13;;;13.60;40.60;;;;;;5065543;28;20653;-68
2023/04/06 12:29:21;;;;;;;4.27;2.93;;;13.40;40.90;;;;;;5061064;28;21228;-68
2023/04/06 12:31:48;;;;;;;3.07;2.70;;;13.30;41.50;;;;;;5063577;28;20657;-68
2023/04/06 12:34:15;;;;;;;3.73;2.50;;;13.30;40.90;;;;;;5070858;28;20622;-68
2023/04/06 12:36:42;;;;;;;2.90;2.70;;;13.50;40.70;;;;;;5063275;28;20777;-68
2023/04/06 12:39:10;;;;;;;3.90;2.60;;;13.40;39.20;;;;;;5070351;28;20625;-68
2023/04/06 12:41:40;;;;;;;2.77;2.57;;;13.40;38.70;;;;;;5069077;28;20656;-68
2023/04/06 12:44:07;;;;;;;3.70;3.17;;;13.40;39.00;;;;;;5068846;28;20634;-68
2023/04/06 12:46:34;;;;;;;3.70;3.00;;;13.40;40.00;;;;;;5068764;28;20625;-68
2023/04/06 12:49:03;;;;;;;3.70;2.77;;;13.50;39.40;;;;;;5069525;28;20721;-67
2023/04/06 12:51:30;;;;;;;3.07;2.40;;;13.80;39.20;;;;;;5069686;28;21186;-67
2023/04/06 12:53:57;;;;;;;3.60;2.97;;;13.80;39.90;;;;;;5069914;28;20634;-68
2023/04/06 12:56:26;;;;;;;3.90;2.90;;;13.90;39.10;;;;;;5069444;28;20659;-67